Alexander, Arkansas
Current Conditions -  °F | °C
As of 1:53 PM on Saturday 25 Oct 2014 (Local Time) from KLIT Reporting Station
Clear Clear  
Wind Chill: 29°   Ceiling: Unl
Heat Index: 30°   Visibility: 10mi
Dew Point: 17°   Wind: 8mph
Humidity: 46%   Direction: 230°SW
Pressure: 30.05"   Gusts: NA
Location:  34.63°N, 92.44°W
Report Text: KLIT 251853Z 23007KT 10SM CLR 29/17 A3005 RMK AO2 SLP175 T02940167
Loading
Personal Weather Stations






























Interactive Weather Map
Tropical Storm Tracking
New forecast layout! Learn more

10-Day Weather Forecast

Advertisements
Track Severe Weather on mobile